createdAt,value
2023-02-13T00:00:38.885Z,16.75
2023-02-13T00:03:07.416Z,11.95
2023-02-13T00:05:35.040Z,11.77
2023-02-13T00:08:02.813Z,11.55
2023-02-13T00:10:30.539Z,12.00
2023-02-13T00:12:59.482Z,11.63
2023-02-13T00:15:27.167Z,11.25
2023-02-13T00:17:54.824Z,12.55
2023-02-13T00:20:22.674Z,13.90
2023-02-13T00:22:50.386Z,9.23
2023-02-13T00:25:18.178Z,10.00
2023-02-13T00:27:45.815Z,10.60
2023-02-13T00:30:16.110Z,13.38
2023-02-13T00:32:43.774Z,11.60
2023-02-13T00:35:11.508Z,12.98
2023-02-13T00:37:39.120Z,12.55
2023-02-13T00:40:07.837Z,11.55
2023-02-13T00:42:35.442Z,11.15
2023-02-13T00:45:03.052Z,11.65
2023-02-13T00:47:32.018Z,11.82
2023-02-13T00:49:59.609Z,11.43
2023-02-13T00:52:27.200Z,10.07
2023-02-13T00:54:54.839Z,13.18
2023-02-13T00:57:22.452Z,12.02
2023-02-13T00:59:51.109Z,11.38
2023-02-13T01:02:19.383Z,12.57
2023-02-13T01:04:48.347Z,14.10
2023-02-13T01:07:16.826Z,12.30
2023-02-13T01:09:44.995Z,13.25
2023-02-13T01:12:12.600Z,13.38
2023-02-13T01:14:40.214Z,12.85
2023-02-13T01:17:07.807Z,11.82
2023-02-13T01:19:35.484Z,9.90
2023-02-13T01:22:04.442Z,16.20
2023-02-13T01:24:33.210Z,11.75
2023-02-13T01:27:02.294Z,15.07
2023-02-13T01:29:30.265Z,14.45
2023-02-13T01:31:58.266Z,13.13
2023-02-13T01:34:26.069Z,16.23
2023-02-13T01:36:53.641Z,14.10
2023-02-13T01:39:22.576Z,14.07
2023-02-13T01:41:50.221Z,16.10
2023-02-13T01:44:50.605Z,12.98
2023-02-13T01:47:25.448Z,14.80
2023-02-13T01:50:00.191Z,11.52
2023-02-13T01:52:28.303Z,14.50
2023-02-13T01:54:57.549Z,13.85
2023-02-13T01:57:27.230Z,13.60
2023-02-13T01:59:59.620Z,14.55
2023-02-13T02:02:29.190Z,16.63
2023-02-13T02:04:57.057Z,13.27
2023-02-13T02:07:27.231Z,14.18
2023-02-13T02:10:01.621Z,14.65
2023-02-13T02:12:37.218Z,15.65
2023-02-13T02:15:06.636Z,14.18
2023-02-13T02:17:34.532Z,14.77
2023-02-13T02:20:15.878Z,15.40
2023-02-13T02:23:19.071Z,15.80
2023-02-13T02:26:24.330Z,14.55
2023-02-13T02:29:15.368Z,16.38
2023-02-13T02:32:11.933Z,16.90
2023-02-13T02:34:51.914Z,15.07
2023-02-13T02:37:34.523Z,12.95
2023-02-13T02:40:12.913Z,13.10
2023-02-13T02:42:47.689Z,15.05
2023-02-13T02:45:24.498Z,13.63
2023-02-13T02:48:18.664Z,10.73
2023-02-13T02:50:53.018Z,14.77
2023-02-13T02:53:33.803Z,15.77
2023-02-13T02:56:07.237Z,14.85
2023-02-13T02:58:58.409Z,14.80
2023-02-13T03:01:47.754Z,15.68
2023-02-13T03:04:39.482Z,15.55
2023-02-13T03:07:10.514Z,14.10
2023-02-13T03:09:59.761Z,14.57
2023-02-13T03:12:50.559Z,12.82
2023-02-13T03:15:18.563Z,16.75
2023-02-13T03:18:03.986Z,15.07
2023-02-13T03:21:01.080Z,13.77
2023-02-13T03:23:39.815Z,14.15
2023-02-13T03:26:46.070Z,12.52
2023-02-13T03:29:51.630Z,14.27
2023-02-13T03:32:28.109Z,14.93
2023-02-13T03:35:23.896Z,13.75
2023-02-13T03:38:01.918Z,11.65
2023-02-13T03:40:35.488Z,11.63
2023-02-13T03:43:09.963Z,15.93
2023-02-13T03:45:55.462Z,12.60
2023-02-13T03:48:45.087Z,12.20
2023-02-13T03:51:17.434Z,11.35
2023-02-13T03:53:49.590Z,11.70
2023-02-13T03:56:38.595Z,12.02
2023-02-13T03:59:19.837Z,12.65
2023-02-13T04:01:55.031Z,10.70
2023-02-13T04:04:29.214Z,11.43
2023-02-13T04:07:00.452Z,13.43
2023-02-13T04:09:31.310Z,14.00
2023-02-13T04:12:03.787Z,13.50
2023-02-13T04:14:37.190Z,15.63
2023-02-13T04:17:07.073Z,11.98
2023-02-13T04:19:35.200Z,12.18
2023-02-13T04:22:03.798Z,14.07
2023-02-13T04:24:32.738Z,12.32
2023-02-13T04:27:00.711Z,8.32
2023-02-13T04:29:28.402Z,10.82
2023-02-13T04:31:56.158Z,12.05
2023-02-13T04:34:23.823Z,7.97
2023-02-13T04:36:51.488Z,13.10
2023-02-13T04:39:19.186Z,12.48
2023-02-13T04:41:48.159Z,9.80
2023-02-13T04:44:15.766Z,11.48
2023-02-13T04:46:43.382Z,10.75
2023-02-13T04:49:11.166Z,9.88
2023-02-13T04:51:38.790Z,11.02
2023-02-13T04:54:06.452Z,10.23
2023-02-13T04:56:34.093Z,9.18
2023-02-13T04:59:03.055Z,10.10
2023-02-13T05:01:31.184Z,10.63
2023-02-13T05:04:01.589Z,10.90
2023-02-13T05:06:29.208Z,12.63
2023-02-13T05:08:56.830Z,8.65
2023-02-13T05:11:24.511Z,11.10
2023-02-13T05:13:52.110Z,13.45
2023-02-13T05:16:21.112Z,13.07
2023-02-13T05:18:48.814Z,8.38
2023-02-13T05:21:34.551Z,13.23
2023-02-13T05:24:02.195Z,11.65
2023-02-13T05:26:29.809Z,13.05
2023-02-13T05:29:15.121Z,10.93
2023-02-13T05:31:44.199Z,10.90
2023-02-13T05:34:11.931Z,7.95
2023-02-13T05:36:39.965Z,8.43
2023-02-13T05:39:08.241Z,8.55
2023-02-13T05:41:36.020Z,7.57
2023-02-13T05:44:03.917Z,11.57
2023-02-13T05:46:31.872Z,7.63
2023-02-13T05:49:02.689Z,5.53
2023-02-13T05:51:31.642Z,8.43
2023-02-13T05:53:59.804Z,10.15
2023-02-13T05:56:28.042Z,9.85
2023-02-13T05:58:56.884Z,7.15
2023-02-13T06:01:25.490Z,10.68
2023-02-13T06:03:53.334Z,9.27
2023-02-13T06:06:22.852Z,7.00
2023-02-13T06:08:50.784Z,7.15
2023-02-13T06:11:18.704Z,7.10
2023-02-13T06:13:46.541Z,7.88
2023-02-13T06:16:14.562Z,9.10
2023-02-13T06:18:42.220Z,9.48
2023-02-13T06:21:10.117Z,9.25
2023-02-13T06:23:39.238Z,9.85
2023-02-13T06:26:08.956Z,11.40
2023-02-13T06:28:36.777Z,10.57
2023-02-13T06:31:05.140Z,6.82
2023-02-13T06:33:33.192Z,8.23
2023-02-13T06:36:01.057Z,10.25
2023-02-13T06:38:28.721Z,12.27
2023-02-13T06:41:01.790Z,11.77
2023-02-13T06:43:29.516Z,9.77
2023-02-13T06:45:57.419Z,22.48
2023-02-13T06:48:26.403Z,8.00
2023-02-13T06:50:54.102Z,9.35
2023-02-13T06:53:24.879Z,9.93
2023-02-13T06:55:53.875Z,8.40
2023-02-13T06:58:23.916Z,14.20
2023-02-13T07:00:52.074Z,8.10
2023-02-13T07:03:21.997Z,6.97
2023-02-13T07:05:51.836Z,6.18
2023-02-13T07:08:20.261Z,8.27
2023-02-13T07:10:48.141Z,7.28
2023-02-13T07:13:16.930Z,10.20
2023-02-13T07:15:46.299Z,8.15
2023-02-13T07:18:14.252Z,7.30
2023-02-13T07:20:42.021Z,8.77
2023-02-13T07:23:09.810Z,8.23
2023-02-13T07:25:37.418Z,8.43
2023-02-13T07:28:06.979Z,8.60
2023-02-13T07:30:35.881Z,8.45
2023-02-13T07:33:06.077Z,8.98
2023-02-13T07:35:36.019Z,7.88
2023-02-13T07:38:04.138Z,9.02
2023-02-13T07:40:31.844Z,7.55
2023-02-13T07:43:01.859Z,8.60
2023-02-13T07:45:29.544Z,6.60
2023-02-13T07:47:57.434Z,8.07
2023-02-13T07:50:27.182Z,6.13
2023-02-13T07:52:55.658Z,7.80
2023-02-13T07:55:23.793Z,9.27
2023-02-13T07:57:51.945Z,6.43
2023-02-13T08:00:21.028Z,7.95
2023-02-13T08:02:51.193Z,8.18
2023-02-13T08:05:19.140Z,6.32
2023-02-13T08:07:48.196Z,9.48
2023-02-13T08:10:34.805Z,9.68
2023-02-13T08:13:02.504Z,8.95
2023-02-13T08:15:30.471Z,8.75
2023-02-13T08:17:58.314Z,11.95
2023-02-13T08:20:26.740Z,10.23
2023-02-13T08:22:55.718Z,8.98
2023-02-13T08:25:23.429Z,8.63
2023-02-13T08:27:51.199Z,6.50
2023-02-13T08:30:18.975Z,6.13
2023-02-13T08:32:54.163Z,10.82
2023-02-13T08:35:26.622Z,12.13
2023-02-13T08:37:55.617Z,12.10
2023-02-13T08:40:24.675Z,10.98
2023-02-13T08:42:54.082Z,11.20
2023-02-13T08:45:22.387Z,7.72
2023-02-13T08:47:51.118Z,8.82
2023-02-13T08:50:18.975Z,11.20
2023-02-13T08:52:49.144Z,12.00
2023-02-13T08:55:18.135Z,10.75
2023-02-13T08:57:45.824Z,9.65
2023-02-13T09:00:15.471Z,10.75
2023-02-13T09:02:43.166Z,10.15
2023-02-13T09:05:11.471Z,9.20
2023-02-13T09:07:39.187Z,8.63
2023-02-13T09:10:08.979Z,8.25
2023-02-13T09:12:40.598Z,10.18
2023-02-13T09:15:09.620Z,7.88
2023-02-13T09:17:37.342Z,7.88
2023-02-13T09:20:06.280Z,5.97
2023-02-13T09:22:34.002Z,9.35
2023-02-13T09:25:04.682Z,8.15
2023-02-13T09:27:33.504Z,9.15
2023-02-13T09:30:05.515Z,10.23
2023-02-13T09:32:34.131Z,6.75
2023-02-13T09:35:02.121Z,9.02
2023-02-13T09:37:29.796Z,9.70
2023-02-13T09:39:57.447Z,7.10
2023-02-13T09:42:29.894Z,8.77
2023-02-13T09:45:01.067Z,8.15
2023-02-13T09:47:33.007Z,5.57
2023-02-13T09:50:03.784Z,4.40
2023-02-13T09:52:34.672Z,6.40
2023-02-13T09:55:02.401Z,6.20
2023-02-13T09:57:36.131Z,7.50
2023-02-13T10:00:13.377Z,9.55
2023-02-13T10:03:14.344Z,6.57
2023-02-13T10:05:49.809Z,6.65
2023-02-13T10:08:27.537Z,4.97
2023-02-13T10:11:04.599Z,6.30
2023-02-13T10:14:02.381Z,9.38
2023-02-13T10:16:34.272Z,10.27
2023-02-13T10:19:14.385Z,6.90
2023-02-13T10:21:50.800Z,8.68
2023-02-13T10:24:27.008Z,9.73
2023-02-13T10:26:57.222Z,8.30
2023-02-13T10:29:51.315Z,8.15
2023-02-13T10:32:24.492Z,7.72
2023-02-13T10:34:59.724Z,9.10
2023-02-13T10:37:29.757Z,10.73
2023-02-13T10:39:57.799Z,12.10
2023-02-13T10:42:38.365Z,7.65
2023-02-13T10:45:29.952Z,6.93
2023-02-13T10:48:14.298Z,12.55
2023-02-13T10:50:55.168Z,10.15
2023-02-13T10:53:31.440Z,10.57
2023-02-13T10:56:20.334Z,7.85
2023-02-13T10:59:09.496Z,8.55
2023-02-13T11:01:47.597Z,7.75
2023-02-13T11:04:18.729Z,9.60
2023-02-13T11:06:56.278Z,8.00
2023-02-13T11:09:24.836Z,6.25
2023-02-13T11:11:52.553Z,6.28
2023-02-13T11:14:22.127Z,6.20
2023-02-13T11:16:53.884Z,7.40
2023-02-13T11:19:26.434Z,10.10
2023-02-13T11:22:00.188Z,9.05
2023-02-13T11:24:28.893Z,8.27
2023-02-13T11:27:01.767Z,7.55
2023-02-13T11:29:31.767Z,8.77
2023-02-13T11:32:16.531Z,8.98
2023-02-13T11:34:45.298Z,7.15
2023-02-13T11:37:32.894Z,7.80
2023-02-13T11:40:21.602Z,6.90
2023-02-13T11:42:52.582Z,8.18
2023-02-13T11:45:23.318Z,8.18
2023-02-13T11:47:51.862Z,12.15
2023-02-13T11:50:26.824Z,8.60
2023-02-13T11:52:59.483Z,7.22
2023-02-13T11:55:31.878Z,6.68
2023-02-13T11:58:01.871Z,8.32
2023-02-13T12:00:37.364Z,5.90
2023-02-13T12:03:26.328Z,5.30
2023-02-13T12:06:02.212Z,6.15
2023-02-13T12:08:33.088Z,8.30
2023-02-13T12:11:02.762Z,6.53
2023-02-13T12:13:33.766Z,7.60
2023-02-13T12:16:06.144Z,7.88
2023-02-13T12:18:39.439Z,6.03
2023-02-13T12:21:19.084Z,5.82
2023-02-13T12:23:56.580Z,5.63
2023-02-13T12:26:31.833Z,7.38
2023-02-13T12:29:15.670Z,5.78
2023-02-13T12:32:00.972Z,4.78
2023-02-13T12:34:56.166Z,6.65
2023-02-13T12:37:48.155Z,7.22
2023-02-13T12:40:29.716Z,5.78
2023-02-13T12:43:27.782Z,6.78
2023-02-13T12:46:03.063Z,6.57
2023-02-13T12:48:40.919Z,4.80
2023-02-13T12:51:22.467Z,7.50
2023-02-13T12:54:04.932Z,5.78
2023-02-13T12:56:56.708Z,10.07
2023-02-13T12:59:39.367Z,4.70
2023-02-13T13:02:36.411Z,6.35
2023-02-13T13:05:16.303Z,4.70
2023-02-13T13:08:02.011Z,4.25
2023-02-13T13:10:41.110Z,6.50
2023-02-13T13:13:22.762Z,5.70
2023-02-13T13:15:57.775Z,5.13
2023-02-13T13:18:36.797Z,6.32
2023-02-13T13:21:15.522Z,5.63
2023-02-13T13:23:50.642Z,7.18
2023-02-13T13:26:32.891Z,5.97
2023-02-13T13:29:05.913Z,6.10
2023-02-13T13:31:36.712Z,8.25
2023-02-13T13:34:08.719Z,7.90
2023-02-13T13:36:44.602Z,8.60
2023-02-13T13:39:26.422Z,6.72
2023-02-13T13:42:08.266Z,5.72
2023-02-13T13:44:51.284Z,6.70
2023-02-13T13:47:28.007Z,9.45
2023-02-13T13:49:58.308Z,9.98
2023-02-13T13:52:28.453Z,7.88
2023-02-13T13:54:57.790Z,11.10
2023-02-13T13:57:27.064Z,9.00
2023-02-13T14:00:27.505Z,9.40
2023-02-13T14:03:24.917Z,8.18
2023-02-13T14:06:01.674Z,7.95
2023-02-13T14:09:06.389Z,9.88
2023-02-13T14:11:44.542Z,10.18
2023-02-13T14:14:55.981Z,7.13
2023-02-13T14:17:56.030Z,6.00
2023-02-13T14:20:41.272Z,7.72
2023-02-13T14:23:27.083Z,7.78
2023-02-13T14:26:27.227Z,7.13
2023-02-13T14:29:11.081Z,8.68
2023-02-13T14:31:41.079Z,8.27
2023-02-13T14:34:20.221Z,6.70
2023-02-13T14:36:49.717Z,8.18
2023-02-13T14:39:25.824Z,6.97
2023-02-13T14:42:01.289Z,8.13
2023-02-13T14:44:34.058Z,8.52
2023-02-13T14:47:04.980Z,7.95
2023-02-13T14:49:37.685Z,8.68
2023-02-13T14:52:08.051Z,5.88
2023-02-13T14:54:39.380Z,7.00
2023-02-13T14:57:11.244Z,7.97
2023-02-13T14:59:44.943Z,6.72
2023-02-13T15:02:24.084Z,6.75
2023-02-13T15:04:57.803Z,7.35
2023-02-13T15:07:29.932Z,7.47
2023-02-13T15:10:03.242Z,7.95
2023-02-13T15:12:33.807Z,9.60
2023-02-13T15:15:02.846Z,10.15
2023-02-13T15:17:38.246Z,9.02
2023-02-13T15:20:25.305Z,8.77
2023-02-13T15:22:53.856Z,8.23
2023-02-13T15:25:26.872Z,9.18
2023-02-13T15:27:55.634Z,6.70
2023-02-13T15:30:25.704Z,7.68
2023-02-13T15:32:57.753Z,5.93
2023-02-13T15:35:29.231Z,5.63
2023-02-13T15:37:56.917Z,8.48
2023-02-13T15:40:28.194Z,7.53
2023-02-13T15:42:57.065Z,5.45
2023-02-13T15:45:28.179Z,6.82
2023-02-13T15:47:57.952Z,7.93
2023-02-13T15:50:31.205Z,6.07
2023-02-13T15:53:00.782Z,8.90
2023-02-13T15:55:30.672Z,8.45
2023-02-13T15:58:00.614Z,9.85
2023-02-13T16:00:31.712Z,8.40
2023-02-13T16:03:02.516Z,11.70
2023-02-13T16:05:40.565Z,8.25
2023-02-13T16:08:28.938Z,11.88
2023-02-13T16:11:26.603Z,10.18
2023-02-13T16:14:02.542Z,9.82
2023-02-13T16:16:33.712Z,10.45
2023-02-13T16:19:01.626Z,9.50
2023-02-13T16:21:34.405Z,8.02
2023-02-13T16:24:06.344Z,9.27
2023-02-13T16:26:39.062Z,8.32
2023-02-13T16:29:11.446Z,10.50
2023-02-13T16:31:40.620Z,10.73
2023-02-13T16:34:15.844Z,10.63
2023-02-13T16:36:44.891Z,7.28
2023-02-13T16:39:20.372Z,12.68
2023-02-13T16:41:50.680Z,8.70
2023-02-13T16:44:27.808Z,9.93
2023-02-13T16:46:57.955Z,11.52
2023-02-13T16:49:28.563Z,8.40
2023-02-13T16:52:07.733Z,8.20
2023-02-13T16:54:38.627Z,7.22
2023-02-13T16:57:19.097Z,7.07
2023-02-13T16:59:54.749Z,7.05
2023-02-13T17:02:24.656Z,7.28
2023-02-13T17:04:54.749Z,6.00
2023-02-13T17:07:27.409Z,6.57
2023-02-13T17:10:00.885Z,7.10
2023-02-13T17:12:30.351Z,6.75
2023-02-13T17:14:59.629Z,5.93
2023-02-13T17:17:29.593Z,7.55
2023-02-13T17:19:57.957Z,10.40
2023-02-13T17:22:33.525Z,6.82
2023-02-13T17:25:03.554Z,7.50
2023-02-13T17:27:31.860Z,8.27
2023-02-13T17:30:02.587Z,9.25
2023-02-13T17:32:31.639Z,9.68
2023-02-13T17:34:59.284Z,7.80
2023-02-13T17:37:29.970Z,9.25
2023-02-13T17:39:57.661Z,7.45
2023-02-13T17:42:27.344Z,9.02
2023-02-13T17:44:56.942Z,8.98
2023-02-13T17:47:25.532Z,8.25
2023-02-13T17:49:59.141Z,9.73
2023-02-13T17:52:34.225Z,9.60
2023-02-13T17:55:02.118Z,9.98
2023-02-13T17:57:31.986Z,8.82
2023-02-13T18:00:03.383Z,7.00
2023-02-13T18:02:31.250Z,8.43
2023-02-13T18:04:58.913Z,8.57
2023-02-13T18:07:27.435Z,12.23
2023-02-13T18:09:57.106Z,8.52
2023-02-13T18:12:25.478Z,7.32
2023-02-13T18:14:53.970Z,9.40
2023-02-13T18:17:24.483Z,8.85
2023-02-13T18:19:52.431Z,8.60
2023-02-13T18:22:20.125Z,6.93
2023-02-13T18:24:47.946Z,8.45
2023-02-13T18:27:17.927Z,7.25
2023-02-13T18:29:45.552Z,8.15
2023-02-13T18:32:13.359Z,7.88
2023-02-13T18:34:41.159Z,8.60
2023-02-13T18:37:12.619Z,8.60
2023-02-13T18:39:41.050Z,12.02
2023-02-13T18:42:08.844Z,8.82
2023-02-13T18:44:37.928Z,8.88
2023-02-13T18:47:05.775Z,9.43
2023-02-13T18:49:33.536Z,11.13
2023-02-13T18:52:02.502Z,15.63
2023-02-13T18:54:30.919Z,14.80
2023-02-13T18:56:58.689Z,16.33
2023-02-13T18:59:26.474Z,15.93
2023-02-13T19:01:55.436Z,12.02
2023-02-13T19:04:23.118Z,12.43
2023-02-13T19:06:51.103Z,17.50
2023-02-13T19:09:18.811Z,14.38
2023-02-13T19:11:48.447Z,11.10
2023-02-13T19:14:16.386Z,8.80
2023-02-13T19:16:44.061Z,10.23
2023-02-13T19:19:13.340Z,11.20
2023-02-13T19:21:40.990Z,10.02
2023-02-13T19:24:11.031Z,11.32
2023-02-13T19:26:38.734Z,10.93
2023-02-13T19:29:06.403Z,12.38
2023-02-13T19:31:34.603Z,11.25
2023-02-13T19:34:02.408Z,12.40
2023-02-13T19:36:31.670Z,13.73
2023-02-13T19:39:00.990Z,11.25
2023-02-13T19:41:29.153Z,15.30
2023-02-13T19:43:56.907Z,15.40
2023-02-13T19:46:26.758Z,13.10
2023-02-13T19:48:55.040Z,11.32
2023-02-13T19:51:25.095Z,9.52
2023-02-13T19:53:57.765Z,10.18
2023-02-13T19:56:27.176Z,10.90
2023-02-13T19:58:55.091Z,11.18
2023-02-13T20:01:24.940Z,8.90
2023-02-13T20:03:53.377Z,14.02
2023-02-13T20:06:23.999Z,12.50
2023-02-13T20:08:53.804Z,15.75
2023-02-13T20:11:23.074Z,11.63
2023-02-13T20:13:56.409Z,11.90
2023-02-13T20:16:24.666Z,12.52
2023-02-13T20:18:52.641Z,12.65
2023-02-13T20:21:21.009Z,12.18
2023-02-13T20:23:51.235Z,14.43
2023-02-13T20:26:19.057Z,12.40
2023-02-13T20:28:48.834Z,10.00
2023-02-13T20:31:18.874Z,13.30
2023-02-13T20:33:48.662Z,10.30
2023-02-13T20:36:18.582Z,11.82
2023-02-13T20:38:46.401Z,10.65
2023-02-13T20:41:16.116Z,11.68
2023-02-13T20:43:43.807Z,11.15
2023-02-13T20:46:15.842Z,11.52
2023-02-13T20:48:45.347Z,9.90
2023-02-13T20:51:15.408Z,9.93
2023-02-13T20:53:44.004Z,10.05
2023-02-13T20:56:14.547Z,9.27
2023-02-13T20:58:43.494Z,12.00
2023-02-13T21:01:17.654Z,11.18
2023-02-13T21:03:48.408Z,10.30
2023-02-13T21:06:16.304Z,10.45
2023-02-13T21:08:44.616Z,14.10
2023-02-13T21:11:13.888Z,14.18
2023-02-13T21:13:41.735Z,11.27
2023-02-13T21:16:12.346Z,10.25
2023-02-13T21:18:42.583Z,13.85
2023-02-13T21:21:12.041Z,11.18
2023-02-13T21:23:40.546Z,12.15
2023-02-13T21:26:24.893Z,11.15
2023-02-13T21:28:54.583Z,12.48
2023-02-13T21:31:29.301Z,10.70
2023-02-13T21:34:03.160Z,12.23
2023-02-13T21:36:34.762Z,16.85
2023-02-13T21:39:03.069Z,11.38
2023-02-13T21:41:32.433Z,14.00
2023-02-13T21:44:07.088Z,13.65
2023-02-13T21:46:36.899Z,13.02
2023-02-13T21:49:13.238Z,10.82
2023-02-13T21:51:44.905Z,11.85
2023-02-13T21:54:14.492Z,15.77
2023-02-13T21:56:45.635Z,12.55
2023-02-13T21:59:16.899Z,11.90
2023-02-13T22:01:46.642Z,14.00
2023-02-13T22:04:16.228Z,14.85
2023-02-13T22:06:47.683Z,13.75
2023-02-13T22:09:17.455Z,16.80
2023-02-13T22:11:53.837Z,17.10
2023-02-13T22:14:24.531Z,17.60
2023-02-13T22:16:57.029Z,16.35
2023-02-13T22:19:26.451Z,15.73
2023-02-13T22:22:02.453Z,16.13
2023-02-13T22:24:30.257Z,14.23
2023-02-13T22:26:58.003Z,15.00
2023-02-13T22:29:26.917Z,18.67
2023-02-13T22:31:54.824Z,13.13
2023-02-13T22:34:22.683Z,13.20
2023-02-13T22:36:51.752Z,16.77
2023-02-13T22:39:19.354Z,15.02
2023-02-13T22:41:48.147Z,14.50
2023-02-13T22:44:15.764Z,15.05
2023-02-13T22:46:45.208Z,13.80
2023-02-13T22:49:12.901Z,16.07
2023-02-13T22:51:40.571Z,18.45
2023-02-13T22:54:11.540Z,16.93
2023-02-13T22:56:40.599Z,13.60
2023-02-13T22:59:08.292Z,16.60
2023-02-13T23:01:37.228Z,14.63
2023-02-13T23:04:05.112Z,15.52
2023-02-13T23:06:33.062Z,16.07
2023-02-13T23:09:00.697Z,14.80
2023-02-13T23:11:48.372Z,16.17
2023-02-13T23:14:16.734Z,17.07
2023-02-13T23:17:03.308Z,13.13
2023-02-13T23:19:31.407Z,15.13
2023-02-13T23:21:59.241Z,19.30
2023-02-13T23:24:27.410Z,17.67
2023-02-13T23:26:56.517Z,15.40
2023-02-13T23:29:24.322Z,17.80
2023-02-13T23:31:52.194Z,17.77
2023-02-13T23:34:21.097Z,17.50
2023-02-13T23:36:48.865Z,16.00
2023-02-13T23:39:16.596Z,17.43
2023-02-13T23:41:44.191Z,18.77
2023-02-13T23:44:13.154Z,18.37
2023-02-13T23:46:40.841Z,18.27
2023-02-13T23:49:08.572Z,18.30
2023-02-13T23:51:36.196Z,17.27
2023-02-13T23:54:04.793Z,23.17
2023-02-13T23:56:32.684Z,16.13
2023-02-13T23:59:00.373Z,18.67
